Aysenur — ERJR — position and weather

sailwx.info

Track history (hours):
 
Tides and Currents Weather Stations Pressure Air Temp Water Temp Dewpoint Dewpoint Depression Visibility Wind Speed Wind Dir Waves Ship Positions

Aysenur

Last reported at 2015-Sep-01 11:32 UTC. Time now 2015-Sep-03 04:32 UTC.
Position N 40°56' E 028°54'.

Length 79 m; draft 5.4 m.

Type: Other ship. MMSI: 214181018.

Date/timePositionNaut miles runAvg speedWind from/ knotsBaromVisibWave heightAir tempDewpointWater temp
2015-Sep-01 11:32N 40°56' E 028°54'4 1.3
2015-Sep-01 08:33N 40°59' E 028°58'357 7.4
2015-Aug-30 08:05N 46°36' E 031°42'5 8.9
2015-Aug-30 07:32N 46°35' E 031°50'9 8.8
2015-Aug-30 06:28N 46°32' E 032°02'9 8.6
2015-Aug-30 05:27N 46°33' E 032°15'  
2015-Aug-26 22:32N 46°38' E 032°37'18 0.6
2015-Aug-25 13:31N 46°32' E 032°11'4 3.7
2015-Aug-25 12:29N 46°32' E 032°06'2 1.9
2015-Aug-25 11:33N 46°32' E 032°03'10 9.7
2015-Aug-25 10:33N 46°35' E 031°50'10 9.8
2015-Aug-25 09:31N 46°35' E 031°35'33 6.2
2015-Aug-25 04:10N 46°15' E 030°57'326 8.0
2015-Aug-23 11:21N 41°00' E 028°60'5 5.8
2015-Aug-23 10:33N 40°56' E 028°58'3 1.3
2015-Aug-23 08:12N 40°57' E 028°55'0 0.0
2015-Aug-23 07:24N 40°57' E 028°55'0 0.0
2015-Aug-23 04:18N 40°57' E 028°55'  
Track history (hours):
 
Tides and Currents Weather Stations Pressure Air Temp Water Temp Dewpoint Dewpoint Depression Visibility Wind Speed Wind Dir Waves Ship Positions

Aysenur

Last reported at 2015-Sep-01 11:32 UTC. Time now 2015-Sep-03 04:32 UTC.
Position N 40°56' E 028°54'.

Length 79 m; draft 5.4 m.

Type: Other ship. MMSI: 214181018.

Date/timePositionNaut miles runAvg speedWind from/ knotsBaromVisibWave heightAir tempDewpointWater temp
2015-Sep-01 11:32N 40°56' E 028°54'4 1.3
2015-Sep-01 08:33N 40°59' E 028°58'357 7.4
2015-Aug-30 08:05N 46°36' E 031°42'5 8.9
2015-Aug-30 07:32N 46°35' E 031°50'9 8.8
2015-Aug-30 06:28N 46°32' E 032°02'9 8.6
2015-Aug-30 05:27N 46°33' E 032°15'  
2015-Aug-26 22:32N 46°38' E 032°37'18 0.6
2015-Aug-25 13:31N 46°32' E 032°11'4 3.7
2015-Aug-25 12:29N 46°32' E 032°06'2 1.9
2015-Aug-25 11:33N 46°32' E 032°03'10 9.7
2015-Aug-25 10:33N 46°35' E 031°50'10 9.8
2015-Aug-25 09:31N 46°35' E 031°35'33 6.2
2015-Aug-25 04:10N 46°15' E 030°57'326 8.0
2015-Aug-23 11:21N 41°00' E 028°60'5 5.8
2015-Aug-23 10:33N 40°56' E 028°58'3 1.3
2015-Aug-23 08:12N 40°57' E 028°55'0 0.0
2015-Aug-23 07:24N 40°57' E 028°55'0 0.0
2015-Aug-23 04:18N 40°57' E 028°55'  

Dump ship's entire track history